Time;durP1;ratioP1;P1;durP2;ratioP2;P2;SDS_P1;SDS_P2;PMS_P1;PMS_P2;Temp;Humidity;BMP_temperature;BMP_pressure;BME280_temperature;BME280_humidity;BME280_pressure;Samples;Min_cycle;Max_cycle;Signal;HPM_P1;HPM_P2
2021/11/12 00:14:55;;;;;;;32.33;12.13;;;11.90;64.20;;;;;;6252637;28;20059;-78
2021/11/12 00:17:57;;;;;;;28.05;11.23;;;11.90;64.20;;;;;;6242782;28;20046;-78
2021/11/12 00:21:01;;;;;;;22.98;10.98;;;11.80;64.20;;;;;;6236156;28;20036;-80
2021/11/12 00:24:02;;;;;;;29.33;12.40;;;11.80;64.20;;;;;;6224910;28;20048;-78
2021/11/12 00:27:05;;;;;;;32.50;14.48;;;11.80;64.30;;;;;;6221089;28;20416;-79
2021/11/12 00:33:33;;;;;;;22.90;10.75;;;11.70;64.30;;;;;;6252345;28;20484;-77
2021/11/12 00:43:13;;;;;;;29.27;11.70;;;11.60;64.70;;;;;;6225820;28;22624;-77
2021/11/12 00:49:40;;;;;;;23.63;10.40;;;11.60;64.90;;;;;;6216321;28;20059;-79
2021/11/12 00:55:54;;;;;;;29.58;12.05;;;11.60;65.00;;;;;;6240265;28;20060;-78
2021/11/12 00:59:00;;;;;;;26.23;12.30;;;11.60;64.90;;;;;;6220070;28;20046;-78
2021/11/12 01:02:00;;;;;;;35.85;12.85;;;11.50;64.80;;;;;;6238117;28;20037;-79
2021/11/12 01:05:02;;;;;;;30.23;12.68;;;11.50;64.80;;;;;;6229807;28;20079;-79
2021/11/12 01:08:06;;;;;;;37.92;13.13;;;11.50;64.80;;;;;;6232693;28;20156;-78
2021/11/12 01:11:26;;;;;;;29.40;12.63;;;11.50;64.90;;;;;;6243796;28;20140;-79
2021/11/12 01:14:46;;;;;;;29.02;12.63;;;11.40;64.90;;;;;;6229603;28;20141;-78
2021/11/12 01:17:48;;;;;;;30.80;12.15;;;11.50;65.00;;;;;;6220293;28;20623;-78
2021/11/12 01:20:49;;;;;;;30.23;12.80;;;11.40;65.00;;;;;;6248310;28;20033;-78
2021/11/12 01:23:52;;;;;;;28.67;11.60;;;11.40;65.10;;;;;;6247731;28;20038;-79
2021/11/12 01:26:54;;;;;;;32.42;12.48;;;11.40;65.20;;;;;;6250595;28;20038;-79
2021/11/12 01:29:55;;;;;;;35.40;11.73;;;11.40;65.20;;;;;;6265686;28;20363;-79
2021/11/12 01:32:56;;;;;;;31.13;13.38;;;11.40;65.30;;;;;;6266536;28;20047;-79
2021/11/12 01:36:05;;;;;;;31.52;11.02;;;11.40;65.20;;;;;;6265341;28;20060;-79
2021/11/12 01:39:11;;;;;;;23.80;11.35;;;11.30;65.20;;;;;;6250114;28;20060;-79
2021/11/12 01:42:12;;;;;;;28.20;12.50;;;11.30;65.30;;;;;;6256161;28;20029;-79
2021/11/12 01:45:13;;;;;;;26.95;11.57;;;11.20;65.40;;;;;;6272585;28;20033;-78
2021/11/12 01:48:28;;;;;;;30.67;12.55;;;11.20;65.50;;;;;;6241843;28;20045;-79
2021/11/12 01:51:42;;;;;;;28.85;10.93;;;11.20;65.60;;;;;;6248254;28;20077;-78
2021/11/12 01:54:57;;;;;;;29.42;12.07;;;11.10;65.60;;;;;;6269689;28;20091;-79
2021/11/12 02:00:59;;;;;;;28.38;12.85;;;11.10;65.70;;;;;;6243422;28;20029;-80
2021/11/12 02:03:59;;;;;;;32.58;12.32;;;11.20;65.70;;;;;;6245506;28;20474;-79
2021/11/12 02:07:01;;;;;;;30.67;12.80;;;11.20;65.60;;;;;;6250103;28;20041;-78
2021/11/12 02:10:06;;;;;;;26.67;10.38;;;11.20;65.70;;;;;;6247084;28;20374;-79
2021/11/12 02:13:13;;;;;;;33.70;12.30;;;11.20;65.60;;;;;;6265632;28;20041;-79
2021/11/12 02:16:20;;;;;;;30.35;12.68;;;11.20;65.50;;;;;;6268893;28;20033;-80
2021/11/12 02:19:21;;;;;;;27.30;11.70;;;11.20;65.50;;;;;;6259670;28;20038;-80
2021/11/12 02:22:27;;;;;;;29.73;11.80;;;11.20;65.50;;;;;;6255445;28;20055;-78
2021/11/12 02:25:49;;;;;;;37.85;12.32;;;11.20;65.50;;;;;;6269365;28;20132;-78
2021/11/12 02:28:53;;;;;;;30.63;11.85;;;11.20;65.50;;;;;;6263265;28;20411;-78
2021/11/12 02:31:55;;;;;;;28.92;12.23;;;11.20;65.40;;;;;;6244197;28;20042;-78
2021/11/12 02:34:58;;;;;;;29.55;11.95;;;11.20;65.40;;;;;;6243761;28;20038;-79
2021/11/12 02:38:03;;;;;;;30.45;12.43;;;11.30;65.40;;;;;;6245970;28;20117;-79
2021/11/12 02:41:05;;;;;;;28.30;11.27;;;11.20;65.40;;;;;;6254258;28;20030;-78
2021/11/12 02:44:08;;;;;;;29.52;11.35;;;11.20;65.50;;;;;;6270615;28;20037;-79
2021/11/12 02:47:12;;;;;;;25.17;10.30;;;11.20;65.50;;;;;;6240369;28;20055;-79
2021/11/12 02:50:14;;;;;;;29.92;12.73;;;11.10;65.50;;;;;;6240389;28;20051;-79
2021/11/12 02:53:16;;;;;;;28.00;12.02;;;11.10;65.60;;;;;;6234688;28;20120;-78
2021/11/12 02:56:31;;;;;;;29.92;13.18;;;11.10;65.70;;;;;;6230102;28;20052;-79
2021/11/12 02:59:31;;;;;;;30.63;11.80;;;11.10;65.80;;;;;;6251268;28;20103;-79
2021/11/12 03:02:34;;;;;;;32.50;12.45;;;11.10;65.70;;;;;;6253334;28;20037;-78
2021/11/12 03:05:36;;;;;;;31.20;12.32;;;11.10;65.80;;;;;;6250074;28;20542;-78
2021/11/12 03:08:37;;;;;;;29.40;12.30;;;11.10;65.80;;;;;;6259714;28;20346;-78
2021/11/12 03:11:39;;;;;;;28.45;12.80;;;11.10;66.00;;;;;;6230294;28;20056;-78
2021/11/12 03:14:40;;;;;;;31.45;12.38;;;11.10;65.90;;;;;;6208446;28;20069;-78
2021/11/12 03:17:47;;;;;;;31.50;12.10;;;11.10;66.00;;;;;;6225313;28;20044;-78
2021/11/12 03:20:49;;;;;;;33.65;12.95;;;11.10;65.90;;;;;;6265610;28;20041;-78
2021/11/12 03:23:59;;;;;;;29.90;12.35;;;11.10;65.90;;;;;;6240472;28;20041;-78
2021/11/12 03:49:25;;;;;;;28.65;11.52;;;11.00;65.90;;;;;;6265662;28;20124;-79
2021/11/12 04:03:30;;;;;;;31.80;12.43;;;10.80;66.00;;;;;;6267187;28;20462;-78
2021/11/12 05:26:12;;;;;;;30.90;13.05;;;10.40;66.30;;;;;;6245067;28;20116;-79
2021/11/12 05:55:07;;;;;;;27.60;12.75;;;10.00;67.00;;;;;;6257800;28;20463;-78
2021/11/12 05:58:08;;;;;;;28.05;12.38;;;10.00;66.90;;;;;;6242276;28;20065;-79
2021/11/12 06:01:09;;;;;;;28.75;11.98;;;10.00;66.80;;;;;;6267969;28;20045;-78
2021/11/12 06:04:11;;;;;;;29.75;10.82;;;10.00;66.80;;;;;;6265559;28;20025;-77
2021/11/12 06:07:11;;;;;;;26.83;11.75;;;10.00;66.70;;;;;;6269694;28;20036;-75
2021/11/12 06:10:12;;;;;;;28.27;11.20;;;10.00;66.60;;;;;;6269064;28;20045;-75
2021/11/12 06:13:14;;;;;;;24.42;10.30;;;9.90;66.60;;;;;;6267722;28;20457;-76
2021/11/12 06:16:15;;;;;;;25.25;10.70;;;9.90;66.90;;;;;;6264677;28;20044;-76
2021/11/12 06:19:16;;;;;;;25.40;10.20;;;9.80;67.10;;;;;;6255925;28;20041;-76
2021/11/12 06:22:17;;;;;;;21.65;10.75;;;9.80;67.20;;;;;;6256616;28;20029;-76
2021/11/12 06:25:18;;;;;;;38.30;12.65;;;9.80;67.10;;;;;;6236780;28;20388;-75
2021/11/12 06:28:19;;;;;;;36.95;12.63;;;9.80;67.10;;;;;;6250355;28;20033;-76
2021/11/12 06:31:21;;;;;;;33.63;11.52;;;9.80;67.10;;;;;;6249962;28;20049;-76
2021/11/12 06:34:22;;;;;;;29.10;12.18;;;9.80;67.10;;;;;;6243201;28;20053;-77
2021/11/12 06:37:23;;;;;;;31.17;12.00;;;9.80;67.40;;;;;;6227891;28;20050;-77
2021/11/12 06:40:24;;;;;;;29.83;11.18;;;9.70;67.50;;;;;;6235986;28;20072;-76
2021/11/12 06:43:35;;;;;;;30.13;11.50;;;9.70;67.60;;;;;;6216451;28;20050;-74
2021/11/12 06:50:16;;;;;;;21.90;11.88;;;9.80;67.70;;;;;;6235804;28;20374;-72
2021/11/12 06:53:17;;;;;;;29.10;11.70;;;9.70;67.70;;;;;;6242421;28;20038;-72
2021/11/12 06:56:19;;;;;;;24.55;11.73;;;9.80;67.90;;;;;;6244473;28;20430;-72
2021/11/12 06:59:21;;;;;;;30.83;10.15;;;9.80;67.90;;;;;;6243020;28;20038;-71
2021/11/12 07:02:25;;;;;;;31.77;11.45;;;9.80;67.90;;;;;;6242214;28;20030;-72
2021/11/12 07:05:26;;;;;;;25.55;11.48;;;9.80;67.90;;;;;;6249488;28;20056;-74
2021/11/12 07:08:28;;;;;;;32.67;11.95;;;9.90;67.90;;;;;;6265955;28;20037;-75
2021/11/12 07:11:29;;;;;;;30.00;10.70;;;9.90;67.80;;;;;;6265144;28;20127;-73
2021/11/12 07:14:30;;;;;;;41.10;12.70;;;10.00;67.80;;;;;;6264949;28;20529;-69
2021/11/12 07:17:31;;;;;;;27.65;11.48;;;10.00;67.60;;;;;;6267196;28;20026;-74
2021/11/12 07:20:33;;;;;;;25.77;11.68;;;10.00;67.70;;;;;;6262748;28;21025;-79
2021/11/12 07:23:34;;;;;;;30.13;12.43;;;10.00;67.70;;;;;;6265846;28;20040;-78
2021/11/12 07:26:35;;;;;;;27.25;10.48;;;10.00;67.60;;;;;;6266143;28;20109;-78
2021/11/12 07:29:39;;;;;;;26.95;10.35;;;10.00;67.50;;;;;;6267768;28;20127;-76
2021/11/12 07:32:43;;;;;;;22.13;10.15;;;10.00;67.60;;;;;;6260259;28;20040;-75
2021/11/12 07:39:01;;;;;;;24.15;11.30;;;10.00;67.80;;;;;;6260654;28;20033;-77
2021/11/12 07:45:08;;;;;;;25.02;10.13;;;10.00;67.80;;;;;;6265796;28;20500;-77
2021/11/12 07:48:10;;;;;;;19.50;9.40;;;10.10;67.80;;;;;;6267200;28;20025;-77
2021/11/12 07:51:12;;;;;;;26.80;10.10;;;10.10;67.70;;;;;;6251367;28;20700;-77
2021/11/12 07:54:15;;;;;;;26.92;10.23;;;10.20;67.80;;;;;;6270209;28;20044;-77
2021/11/12 07:57:16;;;;;;;21.75;10.65;;;10.20;67.60;;;;;;6255892;28;20509;-78
2021/11/12 08:00:17;;;;;;;24.52;11.68;;;10.30;67.40;;;;;;6265996;28;20052;-78
2021/11/12 08:03:18;;;;;;;35.53;12.55;;;10.30;67.20;;;;;;6265110;28;20374;-77
2021/11/12 08:06:21;;;;;;;33.75;14.95;;;10.40;67.20;;;;;;6245589;28;20037;-77
2021/11/12 08:09:26;;;;;;;34.67;13.70;;;10.40;67.10;;;;;;6255665;28;20057;-77
2021/11/12 08:12:39;;;;;;;40.13;15.80;;;10.40;66.90;;;;;;6243593;28;20114;-77
2021/11/12 08:18:52;;;;;;;36.72;14.07;;;10.50;67.00;;;;;;6265742;28;20029;-76
2021/11/12 08:25:26;;;;;;;35.00;13.93;;;10.50;67.00;;;;;;6265277;28;20090;-76
2021/11/12 08:28:46;;;;;;;32.55;13.25;;;10.50;67.10;;;;;;6264873;28;20111;-78
2021/11/12 08:32:09;;;;;;;35.03;13.38;;;10.50;67.10;;;;;;6264977;28;20469;-77
2021/11/12 08:36:08;;;;;;;28.42;12.90;;;10.60;67.00;;;;;;6254363;28;20044;-77
2021/11/12 08:38:49;;;;;;;29.48;12.50;;;10.60;66.80;;;;;;6259256;28;20029;-76
2021/11/12 08:41:55;;;;;;;29.73;11.95;;;10.70;66.90;;;;;;6259199;28;20053;-77
2021/11/12 08:45:02;;;;;;;40.88;12.48;;;10.70;66.70;;;;;;6245465;28;20116;-78
2021/11/12 08:48:08;;;;;;;26.37;11.03;;;10.80;66.60;;;;;;6236158;28;20056;-76
2021/11/12 08:51:14;;;;;;;34.88;13.10;;;10.80;66.40;;;;;;6231321;28;20618;-76
2021/11/12 08:54:20;;;;;;;26.45;11.73;;;10.80;66.20;;;;;;6232119;28;20045;-77
2021/11/12 08:57:21;;;;;;;26.30;11.50;;;10.80;66.30;;;;;;6222299;28;20482;-76
2021/11/12 09:00:23;;;;;;;33.28;13.30;;;10.70;66.40;;;;;;6265376;28;20043;-77
2021/11/12 09:03:24;;;;;;;30.10;13.18;;;10.70;66.60;;;;;;6263966;28;20029;-77
2021/11/12 09:06:25;;;;;;;35.42;13.77;;;10.80;66.60;;;;;;6263741;28;20462;-78
2021/11/12 09:09:27;;;;;;;29.85;12.73;;;10.70;66.60;;;;;;6260447;28;20033;-78
2021/11/12 09:12:30;;;;;;;36.17;12.50;;;10.80;66.70;;;;;;6261049;28;20554;-77
2021/11/12 09:15:32;;;;;;;34.50;12.65;;;10.80;66.80;;;;;;6239631;28;20026;-77
2021/11/12 09:18:33;;;;;;;27.45;11.90;;;10.80;66.90;;;;;;6223258;28;20072;-78
2021/11/12 09:21:34;;;;;;;29.00;11.82;;;10.80;67.10;;;;;;6235736;28;20052;-76
2021/11/12 09:24:35;;;;;;;36.30;11.73;;;10.90;67.00;;;;;;6217329;28;20087;-77
2021/11/12 09:27:36;;;;;;;34.70;12.82;;;10.90;66.80;;;;;;6248557;28;20060;-78
2021/11/12 09:30:39;;;;;;;36.35;14.25;;;11.00;66.60;;;;;;6262847;28;20128;-77
2021/11/12 09:33:39;;;;;;;27.65;12.32;;;11.00;66.50;;;;;;6238068;28;20041;-76
2021/11/12 09:36:40;;;;;;;28.13;12.13;;;11.00;66.60;;;;;;6233502;28;20532;-78
2021/11/12 09:39:43;;;;;;;28.80;12.15;;;11.10;66.70;;;;;;6247782;28;20120;-77
2021/11/12 09:42:44;;;;;;;32.08;12.65;;;11.00;66.50;;;;;;6247026;28;20037;-77
2021/11/12 09:45:45;;;;;;;34.65;13.80;;;11.00;66.50;;;;;;6247025;28;20051;-77
2021/11/12 09:48:46;;;;;;;37.40;13.02;;;11.00;66.60;;;;;;6262944;28;20112;-77
2021/11/12 09:51:47;;;;;;;35.10;12.80;;;11.00;66.60;;;;;;6263393;28;20076;-77
2021/11/12 09:54:48;;;;;;;28.10;12.77;;;11.20;66.70;;;;;;6263394;28;20048;-77
2021/11/12 09:57:50;;;;;;;34.35;14.07;;;11.30;66.60;;;;;;6239076;28;20065;-77
2021/11/12 10:00:59;;;;;;;41.50;15.88;;;11.30;66.30;;;;;;6258467;28;20075;-77
2021/11/12 10:04:04;;;;;;;35.45;15.68;;;11.40;66.00;;;;;;6278567;28;20037;-77
2021/11/12 10:07:13;;;;;;;31.65;14.18;;;11.40;65.90;;;;;;6243724;28;20068;-77
2021/11/12 10:10:16;;;;;;;40.38;15.57;;;11.50;66.00;;;;;;6243684;28;20663;-78
2021/11/12 10:13:24;;;;;;;35.80;14.20;;;11.60;65.90;;;;;;6265158;28;20033;-77
2021/11/12 10:16:36;;;;;;;41.30;16.63;;;11.70;65.70;;;;;;6262810;28;20155;-77
2021/11/12 10:19:53;;;;;;;46.83;16.15;;;11.70;65.50;;;;;;6256557;28;20064;-77
2021/11/12 10:22:54;;;;;;;32.95;12.80;;;11.80;66.10;;;;;;6253532;28;20085;-77
2021/11/12 10:25:56;;;;;;;38.78;16.33;;;11.90;65.20;;;;;;6253112;28;20411;-77
2021/11/12 10:29:04;;;;;;;41.83;14.88;;;11.90;65.20;;;;;;6254616;28;20048;-78
2021/11/12 10:32:08;;;;;;;42.40;15.13;;;12.00;65.10;;;;;;6243857;28;20029;-78
2021/11/12 10:35:20;;;;;;;42.88;14.35;;;12.10;65.00;;;;;;6240755;28;20049;-77
2021/11/12 10:38:21;;;;;;;37.13;13.35;;;12.10;64.60;;;;;;6237086;28;20371;-77
2021/11/12 10:41:24;;;;;;;34.47;14.48;;;12.10;64.40;;;;;;6225785;28;20042;-77
2021/11/12 10:44:25;;;;;;;40.85;14.30;;;12.10;64.20;;;;;;6227436;28;20516;-77
2021/11/12 10:47:29;;;;;;;40.20;15.30;;;12.10;64.30;;;;;;6220638;28;20159;-77
2021/11/12 10:50:33;;;;;;;32.30;14.20;;;12.10;64.50;;;;;;6220427;28;20068;-77
2021/11/12 10:53:53;;;;;;;35.63;14.98;;;12.20;64.50;;;;;;6244531;28;20042;-77
2021/11/12 10:56:54;;;;;;;34.05;13.40;;;12.30;64.30;;;;;;6256321;28;20569;-75
2021/11/12 11:00:07;;;;;;;29.95;14.65;;;12.30;64.20;;;;;;6238282;28;20041;-77
2021/11/12 11:03:11;;;;;;;49.47;15.90;;;12.30;63.90;;;;;;6264530;28;20326;-77
2021/11/12 11:06:22;;;;;;;39.38;15.77;;;12.30;63.80;;;;;;6243829;28;20061;-77
2021/11/12 11:09:39;;;;;;;38.20;14.85;;;12.30;64.00;;;;;;6240457;28;20033;-77
2021/11/12 11:12:43;;;;;;;41.00;14.75;;;12.40;64.10;;;;;;6245009;28;20109;-77
2021/11/12 11:15:47;;;;;;;38.90;15.25;;;12.40;63.90;;;;;;6259131;28;20041;-79
2021/11/12 11:18:52;;;;;;;43.95;15.90;;;12.40;63.80;;;;;;6263187;28;20105;-77
2021/11/12 11:22:06;;;;;;;47.25;16.08;;;12.40;63.90;;;;;;6242041;28;20072;-78
2021/11/12 11:25:07;;;;;;;42.83;17.13;;;12.50;64.10;;;;;;6227822;28;20033;-77
2021/11/12 11:28:08;;;;;;;43.35;15.65;;;12.60;63.80;;;;;;6225190;28;21040;-77
2021/11/12 11:31:13;;;;;;;55.25;17.15;;;12.70;63.50;;;;;;6206239;28;20108;-76
2021/11/12 11:34:13;;;;;;;46.85;16.15;;;12.90;63.30;;;;;;6222993;28;20072;-78
2021/11/12 11:37:14;;;;;;;42.22;15.88;;;13.00;62.80;;;;;;6209733;28;20092;-76
2021/11/12 11:40:17;;;;;;;45.08;15.15;;;13.00;62.60;;;;;;6227233;28;20042;-77
2021/11/12 11:43:18;;;;;;;37.35;14.75;;;12.90;62.40;;;;;;6220511;28;20045;-76
2021/11/12 11:46:23;;;;;;;43.95;17.20;;;12.90;62.50;;;;;;6224175;28;20037;-77
2021/11/12 11:49:26;;;;;;;41.17;16.52;;;12.90;62.80;;;;;;6227414;28;20061;-77
2021/11/12 11:52:30;;;;;;;38.08;14.95;;;13.00;62.80;;;;;;6235230;28;20455;-77
2021/11/12 11:55:33;;;;;;;52.35;17.08;;;13.10;62.40;;;;;;6224933;28;20063;-78
2021/11/12 11:58:39;;;;;;;48.38;16.15;;;13.10;62.10;;;;;;6252791;28;20041;-76
2021/11/12 12:01:52;;;;;;;41.83;15.57;;;13.20;62.10;;;;;;6232873;28;20079;-77
2021/11/12 12:04:57;;;;;;;41.50;16.77;;;13.30;62.00;;;;;;6225722;28;20154;-76
2021/11/12 12:07:58;;;;;;;46.58;17.05;;;13.40;61.70;;;;;;6224675;28;20025;-76
2021/11/12 12:11:19;;;;;;;43.97;17.40;;;13.50;61.60;;;;;;6211314;28;20450;-77
2021/11/12 12:14:32;;;;;;;45.50;17.50;;;13.60;61.50;;;;;;6236250;28;20045;-76
2021/11/12 12:17:41;;;;;;;53.22;19.02;;;13.70;61.20;;;;;;6236726;28;20049;-76
2021/11/12 12:21:13;;;;;;;42.47;17.95;;;13.80;61.00;;;;;;6237755;28;20458;-75
2021/11/12 12:38:25;;;;;;;41.40;16.15;;;13.90;60.40;;;;;;6255772;28;20051;-75
2021/11/12 13:22:35;;;;;;;37.65;15.52;;;14.60;59.00;;;;;;6194827;28;20038;-75
2021/11/12 13:25:38;;;;;;;38.08;16.75;;;14.60;59.00;;;;;;6242371;28;20144;-76
2021/11/12 13:28:44;;;;;;;45.35;16.65;;;14.70;59.00;;;;;;6237445;28;20386;-77
2021/11/12 13:31:45;;;;;;;41.00;16.70;;;14.70;59.00;;;;;;6235311;28;20053;-76
2021/11/12 13:34:48;;;;;;;35.05;15.15;;;14.80;58.90;;;;;;6225153;28;20474;-77
2021/11/12 13:37:52;;;;;;;42.75;18.33;;;14.80;58.80;;;;;;6233039;28;20939;-75
2021/11/12 13:41:01;;;;;;;37.17;15.90;;;14.80;58.70;;;;;;6240366;28;20030;-76
2021/11/12 13:44:14;;;;;;;42.15;15.88;;;14.80;58.80;;;;;;6228929;28;20382;-76
2021/11/12 13:47:21;;;;;;;34.28;15.02;;;14.80;58.70;;;;;;6243273;28;20067;-75
2021/11/12 13:50:23;;;;;;;50.15;16.73;;;14.90;58.70;;;;;;6262970;28;20461;-77
2021/11/12 13:53:29;;;;;;;46.40;16.40;;;15.00;58.60;;;;;;6268769;28;20051;-76
2021/11/12 13:56:35;;;;;;;35.78;14.90;;;15.00;58.40;;;;;;6226429;28;20034;-75
2021/11/12 13:59:36;;;;;;;34.00;14.80;;;15.10;58.30;;;;;;6241713;28;20037;-78
2021/11/12 14:02:54;;;;;;;33.20;14.75;;;15.20;58.20;;;;;;6242385;28;20354;-74
2021/11/12 14:05:59;;;;;;;38.03;16.23;;;15.10;58.10;;;;;;6260460;28;20037;-75
2021/11/12 14:09:03;;;;;;;42.03;16.15;;;15.10;58.00;;;;;;6264098;28;20431;-76
2021/11/12 14:12:08;;;;;;;40.10;16.20;;;15.10;57.90;;;;;;6247152;28;20037;-75
2021/11/12 14:15:16;;;;;;;42.80;16.95;;;15.10;58.00;;;;;;6269917;28;20045;-76
2021/11/12 14:22:16;;;;;;;40.15;16.35;;;15.10;58.00;;;;;;6230070;28;20156;-76
2021/11/12 14:25:30;;;;;;;45.72;16.90;;;15.10;58.00;;;;;;6227314;28;20468;-76
2021/11/12 14:28:42;;;;;;;43.13;15.90;;;15.10;58.00;;;;;;6245553;28;20080;-76
2021/11/12 14:41:48;;;;;;;39.35;16.75;;;15.00;58.00;;;;;;6240531;28;20102;-76
2021/11/12 14:45:40;;;;;;;42.75;16.33;;;15.00;58.10;;;;;;6235627;28;20099;-76
2021/11/12 14:51:46;;;;;;;35.90;16.30;;;15.00;58.00;;;;;;6264396;28;20171;-75
2021/11/12 14:55:03;;;;;;;44.03;17.00;;;15.00;58.00;;;;;;6260820;28;20055;-76
2021/11/12 14:58:04;;;;;;;41.58;17.80;;;15.00;58.70;;;;;;6245616;28;20034;-76
2021/11/12 15:01:11;;;;;;;48.08;17.98;;;15.00;58.10;;;;;;6260373;28;20552;-76
2021/11/12 15:04:12;;;;;;;48.80;17.88;;;15.00;58.10;;;;;;6244100;28;20040;-77
2021/11/12 15:07:15;;;;;;;40.05;17.73;;;14.90;58.00;;;;;;6248270;28;20041;-76
2021/11/12 15:10:22;;;;;;;41.38;17.10;;;14.90;58.10;;;;;;6229853;28;20064;-77
2021/11/12 15:13:27;;;;;;;42.20;17.05;;;14.80;58.10;;;;;;6265100;28;20422;-75
2021/11/12 15:16:29;;;;;;;41.38;16.13;;;14.70;58.20;;;;;;6263835;28;20060;-76
2021/11/12 15:19:32;;;;;;;39.63;16.83;;;14.70;58.40;;;;;;6259202;28;20060;-78
2021/11/12 15:32:04;;;;;;;39.03;15.30;;;14.50;58.90;;;;;;6222105;28;20137;-76
2021/11/12 15:35:10;;;;;;;36.28;15.20;;;14.50;59.00;;;;;;6225086;28;20041;-77
2021/11/12 15:38:19;;;;;;;40.05;16.20;;;14.40;59.00;;;;;;6234535;28;20117;-75
2021/11/12 15:41:43;;;;;;;40.55;15.50;;;14.40;59.20;;;;;;6233574;28;20374;-77
2021/11/12 15:44:42;;;;;;;41.35;15.85;;;14.30;59.30;;;;;;6234730;28;20068;-77
2021/11/12 15:47:45;;;;;;;44.95;18.10;;;14.10;59.40;;;;;;6222277;28;20044;-76
2021/11/12 15:57:33;;;;;;;35.72;16.02;;;13.80;60.00;;;;;;6262314;28;20116;-77
2021/11/12 16:00:29;;;;;;;38.60;15.45;;;13.70;60.20;;;;;;6263446;28;20061;-76
2021/11/12 16:09:44;;;;;;;36.20;14.18;;;13.50;60.90;;;;;;6263638;28;20104;-75
2021/11/12 16:12:49;;;;;;;39.75;15.55;;;13.40;61.10;;;;;;6264809;28;20129;-76
2021/11/12 16:19:03;;;;;;;43.65;16.10;;;13.20;61.50;;;;;;6259414;28;20067;-75
2021/11/12 16:25:25;;;;;;;40.78;15.43;;;13.10;62.00;;;;;;6230567;28;20461;-75
2021/11/12 16:28:30;;;;;;;37.75;15.00;;;13.00;62.20;;;;;;6230016;28;20029;-76
2021/11/12 16:31:36;;;;;;;42.90;16.58;;;13.00;62.40;;;;;;6231466;28;20661;-76
2021/11/12 16:34:46;;;;;;;40.33;17.52;;;13.00;62.50;;;;;;6229200;28;20727;-75
2021/11/12 16:37:52;;;;;;;39.10;14.57;;;13.00;62.60;;;;;;6225368;28;20073;-76
2021/11/12 16:41:39;;;;;;;44.30;16.55;;;13.00;62.60;;;;;;6218846;28;20072;-77
2021/11/12 16:44:34;;;;;;;46.67;16.38;;;12.90;62.60;;;;;;6235914;28;20975;-77
2021/11/12 16:48:00;;;;;;;48.30;16.50;;;12.90;62.70;;;;;;6221535;28;20482;-76
2021/11/12 16:51:27;;;;;;;58.33;23.30;;;12.90;62.90;;;;;;6237784;28;20037;-77
2021/11/12 16:54:48;;;;;;;53.00;19.25;;;12.80;63.00;;;;;;6244394;28;20489;-77
2021/11/12 16:58:04;;;;;;;43.40;15.55;;;12.70;63.00;;;;;;6242985;28;20045;-75
2021/11/12 17:47:06;;;;;;;62.25;18.92;;;11.80;65.90;;;;;;6262235;28;20122;-76
2021/11/12 17:50:25;;;;;;;69.78;24.80;;;11.80;66.00;;;;;;6244762;28;20036;-76
2021/11/12 17:54:06;;;;;;;;;;;11.80;66.00;;;;;;6238047;28;20394;-76
2021/11/12 18:03:46;;;;;;;52.45;18.00;;;11.90;66.00;;;;;;6237391;28;20095;-76
2021/11/12 18:07:09;;;;;;;46.53;15.73;;;11.80;66.00;;;;;;6268565;28;20036;-76
2021/11/12 18:23:26;;;;;;;60.03;19.48;;;11.50;67.50;;;;;;6251286;28;20045;-76
2021/11/12 21:49:18;;;;;;;53.88;17.08;;;11.20;69.20;;;;;;6239199;28;20067;-75
2021/11/12 21:52:19;;;;;;;50.00;16.08;;;11.10;69.20;;;;;;6223964;28;20041;-76
2021/11/12 21:55:20;;;;;;;55.38;17.05;;;11.20;69.20;;;;;;6210652;28;20042;-76
2021/11/12 21:58:21;;;;;;;48.53;17.25;;;11.20;69.20;;;;;;6238323;28;20404;-76
2021/11/12 22:01:24;;;;;;;51.35;16.92;;;11.20;69.20;;;;;;6238190;28;20041;-76
2021/11/12 22:04:25;;;;;;;54.15;17.05;;;11.30;69.10;;;;;;6233172;28;20037;-76
2021/11/12 22:07:26;;;;;;;46.20;17.70;;;11.30;69.00;;;;;;6239075;28;20033;-76
2021/11/12 22:10:27;;;;;;;51.78;17.30;;;11.30;68.90;;;;;;6237375;28;20343;-75
2021/11/12 22:13:28;;;;;;;53.03;16.92;;;11.30;69.00;;;;;;6240167;28;20037;-76
2021/11/12 22:16:29;;;;;;;49.53;17.20;;;11.30;68.90;;;;;;6233149;28;20466;-75
2021/11/12 22:19:30;;;;;;;48.95;17.48;;;11.30;68.80;;;;;;6266148;28;20407;-76
2021/11/12 22:22:32;;;;;;;51.20;16.75;;;11.30;68.70;;;;;;6268732;28;20466;-75
2021/11/12 22:25:33;;;;;;;58.28;18.33;;;11.30;68.70;;;;;;6266757;28;20071;-75
2021/11/12 22:28:34;;;;;;;60.17;18.20;;;11.30;68.60;;;;;;6264859;28;20474;-75
2021/11/12 22:31:35;;;;;;;54.00;16.60;;;11.40;68.80;;;;;;6259247;28;20459;-74
2021/11/12 22:34:37;;;;;;;51.88;16.95;;;11.30;68.70;;;;;;6249807;28;20111;-75
2021/11/12 22:37:39;;;;;;;45.38;15.73;;;11.30;68.60;;;;;;6265390;28;20082;-75
2021/11/12 22:40:42;;;;;;;42.35;14.43;;;11.30;68.60;;;;;;6264101;28;20033;-75
2021/11/12 22:43:43;;;;;;;47.53;17.23;;;11.30;68.70;;;;;;6268214;28;20045;-76
2021/11/12 22:46:44;;;;;;;41.42;14.75;;;11.20;68.70;;;;;;6280721;28;20430;-76
2021/11/12 22:49:45;;;;;;;41.67;15.20;;;11.30;68.90;;;;;;6262804;28;20040;-75
2021/11/12 22:52:46;;;;;;;53.10;14.77;;;11.20;68.70;;;;;;6251763;28;20041;-75
2021/11/12 22:55:47;;;;;;;45.63;15.48;;;11.20;68.60;;;;;;6251700;28;20133;-76
2021/11/12 22:58:48;;;;;;;49.40;15.95;;;11.20;68.80;;;;;;6252092;28;20041;-75
2021/11/12 23:01:50;;;;;;;47.22;16.00;;;11.20;68.80;;;;;;6251848;28;20060;-75
2021/11/12 23:04:51;;;;;;;40.42;15.95;;;11.20;68.70;;;;;;6250593;28;20374;-76
2021/11/12 23:07:52;;;;;;;49.05;16.00;;;11.20;68.70;;;;;;6250515;28;20112;-76
2021/11/12 23:10:54;;;;;;;45.38;16.77;;;11.20;68.60;;;;;;6250257;28;20064;-75
2021/11/12 23:13:56;;;;;;;50.00;16.17;;;11.10;68.50;;;;;;6231503;28;20052;-75
2021/11/12 23:16:56;;;;;;;41.10;14.98;;;11.00;68.60;;;;;;6228158;28;20067;-75
2021/11/12 23:19:57;;;;;;;45.58;14.75;;;11.00;68.70;;;;;;6243465;28;20033;-76
2021/11/12 23:23:02;;;;;;;38.45;14.23;;;11.00;68.90;;;;;;6248526;28;20037;-76
2021/11/12 23:26:03;;;;;;;51.38;16.52;;;11.00;69.10;;;;;;6265616;28;20167;-76
2021/11/12 23:29:04;;;;;;;43.80;15.80;;;10.90;69.20;;;;;;6254910;28;20116;-74
2021/11/12 23:32:05;;;;;;;44.83;14.30;;;10.80;69.40;;;;;;6236050;28;20086;-75
2021/11/12 23:35:07;;;;;;;39.35;13.40;;;10.80;69.80;;;;;;6265249;28;20519;-74
2021/11/12 23:38:08;;;;;;;34.13;14.25;;;10.70;69.90;;;;;;6266338;28;20171;-75
2021/11/12 23:41:09;;;;;;;46.38;15.43;;;10.70;69.90;;;;;;6258126;28;20038;-75
2021/11/12 23:44:10;;;;;;;37.08;14.10;;;10.60;70.00;;;;;;6243195;28;20481;-75
2021/11/12 23:47:11;;;;;;;37.85;13.45;;;10.60;70.30;;;;;;6215950;28;20037;-74
2021/11/12 23:50:15;;;;;;;41.53;15.25;;;10.60;70.50;;;;;;6224681;28;20041;-75
2021/11/12 23:53:16;;;;;;;39.80;13.93;;;10.50;70.70;;;;;;6241942;28;20334;-75
2021/11/12 23:56:17;;;;;;;45.65;15.13;;;10.50;70.90;;;;;;6269190;28;20032;-75
2021/11/12 23:59:18;;;;;;;50.45;15.77;;;10.50;71.10;;;;;;6268407;28;20056;-76
